createdAt,value
2018-09-08T00:01:39.246Z,82.69
2018-09-08T00:04:07.489Z,81.97
2018-09-08T00:06:36.281Z,81.88
2018-09-08T00:09:07.118Z,81.58
2018-09-08T00:11:35.258Z,81.26
2018-09-08T00:14:03.358Z,80.56
2018-09-08T00:16:36.917Z,80.75
2018-09-08T00:19:10.540Z,80.85
2018-09-08T00:21:43.984Z,80.52
2018-09-08T00:24:17.489Z,79.52
2018-09-08T00:26:44.858Z,78.59
2018-09-08T00:29:17.215Z,78.40
2018-09-08T00:31:45.901Z,78.73
2018-09-08T00:34:14.079Z,78.22
2018-09-08T00:36:42.178Z,77.79
2018-09-08T00:39:10.639Z,77.77
2018-09-08T00:41:38.723Z,76.98
2018-09-08T00:44:07.157Z,75.62
2018-09-08T00:46:35.518Z,75.59
2018-09-08T00:49:03.681Z,75.96
2018-09-08T00:51:31.814Z,75.81
2018-09-08T00:54:00.200Z,75.92
2018-09-08T00:56:28.454Z,75.99
2018-09-08T00:59:01.866Z,76.49
2018-09-08T01:01:29.968Z,76.20
2018-09-08T01:03:58.107Z,76.99
2018-09-08T01:06:26.205Z,76.27
2018-09-08T01:08:54.819Z,76.59
2018-09-08T01:11:23.127Z,76.21
2018-09-08T01:13:52.233Z,76.61
2018-09-08T01:16:21.013Z,76.92
2018-09-08T01:18:49.107Z,77.13
2018-09-08T01:21:17.282Z,76.50
2018-09-08T01:23:50.151Z,75.74
2018-09-08T01:26:18.732Z,76.62
2018-09-08T01:28:46.901Z,76.41
2018-09-08T01:31:15.185Z,76.95
2018-09-08T01:33:43.285Z,77.55
2018-09-08T01:36:11.501Z,77.52
2018-09-08T01:38:39.761Z,77.49
2018-09-08T01:41:07.819Z,77.64
2018-09-08T01:43:36.171Z,78.21
2018-09-08T01:46:04.292Z,76.63
2018-09-08T01:48:32.410Z,77.94
2018-09-08T01:51:00.510Z,78.57
2018-09-08T01:53:28.641Z,78.91
2018-09-08T01:55:56.715Z,79.31
2018-09-08T01:58:24.843Z,79.94
2018-09-08T02:00:52.993Z,80.62
2018-09-08T02:03:21.143Z,80.65
2018-09-08T02:05:49.209Z,80.27
2018-09-08T02:08:17.394Z,81.19
2018-09-08T02:10:45.652Z,81.19
2018-09-08T02:13:14.271Z,81.95
2018-09-08T02:18:34.435Z,82.25
2018-09-08T02:21:02.538Z,81.98
2018-09-08T02:23:30.597Z,81.33
2018-09-08T02:26:01.563Z,80.86
2018-09-08T02:28:29.803Z,81.52
2018-09-08T02:30:57.911Z,81.98
2018-09-08T02:33:25.976Z,82.32
2018-09-08T02:35:54.123Z,82.39
2018-09-08T02:38:22.826Z,81.90
2018-09-08T02:40:50.920Z,80.88
2018-09-08T02:43:19.035Z,81.71
2018-09-08T02:45:47.140Z,82.68
2018-09-08T02:48:15.252Z,83.63
2018-09-08T02:50:42.786Z,83.28
2018-09-08T02:53:13.664Z,83.86
2018-09-08T02:55:40.891Z,84.24
2018-09-08T02:58:07.958Z,83.00
2018-09-08T03:00:35.028Z,83.60
2018-09-08T03:03:02.250Z,82.90
2018-09-08T03:05:29.311Z,83.85
2018-09-08T03:07:56.435Z,84.02
2018-09-08T03:10:23.511Z,83.89
2018-09-08T03:12:51.595Z,83.62
2018-09-08T03:15:20.057Z,83.55
2018-09-08T03:17:47.119Z,83.51
2018-09-08T03:20:14.218Z,84.75
2018-09-08T03:22:41.295Z,85.31
2018-09-08T03:25:08.355Z,84.98
2018-09-08T03:27:35.462Z,85.79
2018-09-08T03:30:02.595Z,84.93
2018-09-08T03:32:29.661Z,85.51
2018-09-08T03:34:56.749Z,85.88
2018-09-08T03:37:23.847Z,86.28
2018-09-08T03:39:52.126Z,85.25
2018-09-08T03:42:19.211Z,86.06
2018-09-08T03:44:46.365Z,85.73
2018-09-08T03:47:13.523Z,84.56
2018-09-08T03:49:40.631Z,84.80
2018-09-08T03:52:07.708Z,85.34
2018-09-08T03:54:34.801Z,84.51
2018-09-08T03:57:01.879Z,84.93
2018-09-08T03:59:29.083Z,85.12
2018-09-08T04:01:56.170Z,86.33
2018-09-08T04:04:24.243Z,86.69
2018-09-08T04:06:52.969Z,87.59
2018-09-08T04:09:21.055Z,86.66
2018-09-08T04:11:49.211Z,86.54
2018-09-08T04:14:17.275Z,87.24
2018-09-08T04:16:45.366Z,87.61
2018-09-08T04:19:13.468Z,85.99
2018-09-08T04:21:41.820Z,86.71
2018-09-08T04:24:10.005Z,86.69
2018-09-08T04:26:37.986Z,87.06
2018-09-08T04:29:06.112Z,87.29
2018-09-08T04:31:34.210Z,89.05
2018-09-08T04:34:02.270Z,88.77
2018-09-08T04:36:30.452Z,88.69
2018-09-08T04:38:58.513Z,88.76
2018-09-08T04:41:26.595Z,88.19
2018-09-08T04:43:54.899Z,89.01
2018-09-08T04:46:23.987Z,89.46
2018-09-08T04:48:53.198Z,90.18
2018-09-08T04:51:21.323Z,89.39
2018-09-08T04:53:49.374Z,89.97
2018-09-08T04:56:17.472Z,90.21
2018-09-08T04:58:45.547Z,90.78
2018-09-08T05:01:13.650Z,90.50
2018-09-08T05:03:41.824Z,89.67
2018-09-08T05:06:10.010Z,90.32
2018-09-08T05:08:38.184Z,90.78
2018-09-08T05:11:06.343Z,91.91
2018-09-08T05:13:34.536Z,92.01
2018-09-08T05:16:02.735Z,90.54
2018-09-08T05:18:30.995Z,91.61
2018-09-08T05:20:59.120Z,91.12
2018-09-08T05:23:27.334Z,90.82
2018-09-08T05:25:55.519Z,91.90
2018-09-08T05:28:23.597Z,92.50
2018-09-08T05:30:51.775Z,92.05
2018-09-08T05:33:19.847Z,91.74
2018-09-08T05:35:48.017Z,92.71
2018-09-08T05:38:16.160Z,91.31
2018-09-08T05:40:44.253Z,92.15
2018-09-08T05:43:12.358Z,92.46
2018-09-08T05:45:40.745Z,93.67
2018-09-08T05:48:08.971Z,93.41
2018-09-08T05:50:37.045Z,92.97
2018-09-08T05:53:05.156Z,92.26
2018-09-08T05:55:33.312Z,92.58
2018-09-08T05:58:01.396Z,93.66
2018-09-08T06:00:29.558Z,94.00
2018-09-08T06:02:58.839Z,95.04
2018-09-08T06:05:26.894Z,95.53
2018-09-08T06:07:54.950Z,94.94
2018-09-08T06:10:24.131Z,95.84
2018-09-08T06:12:52.178Z,96.21
2018-09-08T06:15:20.268Z,96.80
2018-09-08T06:17:48.576Z,96.51
2018-09-08T06:20:16.694Z,95.85
2018-09-08T06:22:45.048Z,94.95
2018-09-08T06:25:13.148Z,93.75
2018-09-08T06:27:41.230Z,93.46
2018-09-08T06:30:09.342Z,92.32
2018-09-08T06:32:37.399Z,92.16
2018-09-08T06:35:05.577Z,92.61
2018-09-08T06:37:33.631Z,92.58
2018-09-08T06:40:01.724Z,91.51
2018-09-08T06:42:29.827Z,91.70
2018-09-08T06:44:58.179Z,90.16
2018-09-08T06:47:26.232Z,90.11
2018-09-08T06:49:54.360Z,88.46
2018-09-08T06:52:22.541Z,88.20
2018-09-08T06:54:50.546Z,88.31
2018-09-08T06:57:18.659Z,88.19
2018-09-08T06:59:46.767Z,87.53
2018-09-08T07:02:14.930Z,86.65
2018-09-08T07:04:43.432Z,87.00
2018-09-08T07:07:11.518Z,87.16
2018-09-08T07:09:40.059Z,86.53
2018-09-08T07:12:08.251Z,87.36
2018-09-08T07:14:36.885Z,86.54
2018-09-08T07:17:05.352Z,84.98
2018-09-08T07:19:33.507Z,84.33
2018-09-08T07:22:01.634Z,83.71
2018-09-08T07:24:29.792Z,83.76
2018-09-08T07:26:58.190Z,82.50
2018-09-08T07:29:26.576Z,81.67
2018-09-08T07:31:55.076Z,79.68
2018-09-08T07:34:23.893Z,80.23
2018-09-08T07:36:51.956Z,78.00
2018-09-08T07:39:20.031Z,78.21
2018-09-08T07:41:48.128Z,78.56
2018-09-08T07:44:16.297Z,77.65
2018-09-08T07:46:44.445Z,77.45
2018-09-08T07:49:12.543Z,77.40
2018-09-08T07:51:40.620Z,76.63
2018-09-08T07:54:08.854Z,76.49
2018-09-08T07:56:36.917Z,76.89
2018-09-08T07:59:05.292Z,75.38
2018-09-08T08:01:33.366Z,75.03
2018-09-08T08:04:01.570Z,74.85
2018-09-08T08:06:29.693Z,73.06
2018-09-08T08:08:57.808Z,73.21
2018-09-08T08:11:26.015Z,72.89
2018-09-08T08:13:54.083Z,71.24
2018-09-08T08:16:22.175Z,71.89
2018-09-08T08:18:50.256Z,71.75
2018-09-08T08:21:18.334Z,72.04
2018-09-08T08:23:46.543Z,71.59
2018-09-08T08:26:14.821Z,70.64
2018-09-08T08:28:42.877Z,70.02
2018-09-08T08:31:11.237Z,69.03
2018-09-08T08:33:39.315Z,69.34
2018-09-08T08:36:07.923Z,67.65
2018-09-08T08:38:36.185Z,68.45
2018-09-08T08:41:04.376Z,68.48
2018-09-08T08:43:32.523Z,65.33
2018-09-08T08:46:00.646Z,65.50
2018-09-08T08:48:28.711Z,64.42
2018-09-08T08:51:08.487Z,63.27
2018-09-08T08:53:47.843Z,63.14
2018-09-08T08:56:16.019Z,61.28
2018-09-08T08:58:44.068Z,62.25
2018-09-08T09:01:12.215Z,61.14
2018-09-08T09:03:40.283Z,61.84
2018-09-08T09:06:08.652Z,61.02
2018-09-08T09:08:37.201Z,59.12
2018-09-08T09:11:04.907Z,59.21
2018-09-08T09:13:33.132Z,59.98
2018-09-08T09:16:01.137Z,59.45
2018-09-08T09:18:41.091Z,59.49
2018-09-08T09:21:20.239Z,58.58
2018-09-08T09:25:10.673Z,56.76
2018-09-08T09:27:40.455Z,55.30
2018-09-08T09:30:09.135Z,56.79
2018-09-08T09:32:37.256Z,54.15
2018-09-08T09:35:06.030Z,55.58
2018-09-08T09:37:34.104Z,54.51
2018-09-08T09:40:02.186Z,56.04
2018-09-08T09:42:30.242Z,56.04
2018-09-08T09:44:58.359Z,56.46
2018-09-08T09:47:26.461Z,54.41
2018-09-08T09:49:54.527Z,55.99
2018-09-08T09:52:22.595Z,55.35
2018-09-08T09:54:50.659Z,52.63
2018-09-08T09:57:18.845Z,50.60
2018-09-08T09:59:46.926Z,52.01
2018-09-08T10:02:45.381Z,53.09
2018-09-08T10:05:16.316Z,51.43
2018-09-08T10:07:44.478Z,50.80
2018-09-08T10:10:14.046Z,51.16
2018-09-08T10:12:42.151Z,48.38
2018-09-08T10:15:10.696Z,49.22
2018-09-08T10:17:39.670Z,48.38
2018-09-08T10:20:09.329Z,49.05
2018-09-08T10:22:37.438Z,49.49
2018-09-08T10:25:06.289Z,48.70
2018-09-08T10:27:34.464Z,49.42
2018-09-08T10:30:03.867Z,47.86
2018-09-08T10:32:31.518Z,47.25
2018-09-08T10:34:59.625Z,48.80
2018-09-08T10:37:27.714Z,47.31
2018-09-08T10:39:55.845Z,47.08
2018-09-08T10:42:24.811Z,48.01
2018-09-08T10:44:53.337Z,47.72
2018-09-08T10:47:22.597Z,47.95
2018-09-08T10:49:50.640Z,47.95
2018-09-08T10:52:29.528Z,48.53
2018-09-08T10:54:57.672Z,47.08
2018-09-08T10:57:26.246Z,47.26
2018-09-08T10:59:55.290Z,46.87
2018-09-08T11:02:25.561Z,46.98
2018-09-08T11:04:53.641Z,46.22
2018-09-08T11:07:21.971Z,45.28
2018-09-08T11:09:50.033Z,45.13
2018-09-08T11:12:18.106Z,45.89
2018-09-08T11:14:46.165Z,45.26
2018-09-08T11:17:14.319Z,42.83
2018-09-08T11:19:42.459Z,43.07
2018-09-08T11:22:10.586Z,42.38
2018-09-08T11:24:38.686Z,41.94
2018-09-08T11:27:06.844Z,40.83
2018-09-08T11:29:34.869Z,40.14
2018-09-08T11:32:02.966Z,40.44
2018-09-08T11:34:31.044Z,39.89
2018-09-08T11:36:59.107Z,39.00
2018-09-08T11:39:27.219Z,37.58
2018-09-08T11:41:55.298Z,38.06
2018-09-08T11:44:23.436Z,35.77
2018-09-08T11:46:51.895Z,36.17
2018-09-08T11:49:20.121Z,34.70
2018-09-08T11:51:48.289Z,33.95
2018-09-08T11:54:16.383Z,34.40
2018-09-08T11:56:44.556Z,34.19
2018-09-08T11:59:12.623Z,33.56
2018-09-08T12:01:40.692Z,31.19
2018-09-08T12:04:09.421Z,31.35
2018-09-08T12:06:37.757Z,30.69
2018-09-08T12:09:08.026Z,27.88
2018-09-08T12:11:36.200Z,28.04
2018-09-08T12:14:05.101Z,28.11
2018-09-08T12:16:33.271Z,27.43
2018-09-08T12:19:01.363Z,26.23
2018-09-08T12:21:29.523Z,26.24
2018-09-08T12:23:57.630Z,25.54
2018-09-08T12:26:26.263Z,25.88
2018-09-08T12:28:55.214Z,25.42
2018-09-08T12:31:23.646Z,23.44
2018-09-08T12:33:51.892Z,22.70
2018-09-08T12:36:20.483Z,22.63
2018-09-08T12:38:48.742Z,22.82
2018-09-08T12:41:16.848Z,22.11
2018-09-08T12:43:45.059Z,19.90
2018-09-08T12:46:13.340Z,20.03
2018-09-08T12:48:41.884Z,20.08
2018-09-08T12:51:10.946Z,19.52
2018-09-08T12:53:39.564Z,18.71
2018-09-08T12:56:08.878Z,18.79
2018-09-08T12:58:37.958Z,18.53
2018-09-08T13:01:06.788Z,16.47
2018-09-08T13:03:34.913Z,15.34
2018-09-08T13:06:03.213Z,16.09
2018-09-08T13:08:31.417Z,17.06
2018-09-08T13:10:59.480Z,16.01
2018-09-08T13:13:27.674Z,15.18
2018-09-08T13:15:55.887Z,15.17
2018-09-08T13:18:24.312Z,16.72
2018-09-08T13:20:52.552Z,14.17
2018-09-08T13:23:21.564Z,13.67
2018-09-08T13:25:50.835Z,12.28
2018-09-08T13:28:21.421Z,12.49
2018-09-08T13:30:50.054Z,13.60
2018-09-08T13:33:18.983Z,13.53
2018-09-08T13:35:47.238Z,14.09
2018-09-08T13:38:15.486Z,13.30
2018-09-08T13:40:43.816Z,13.11
2018-09-08T13:43:13.015Z,12.02
2018-09-08T13:45:41.346Z,11.82
2018-09-08T13:48:09.473Z,10.58
2018-09-08T13:50:38.022Z,12.12
2018-09-08T13:53:06.442Z,10.70
2018-09-08T13:55:35.082Z,11.67
2018-09-08T13:58:03.284Z,10.97
2018-09-08T14:00:31.580Z,9.83
2018-09-08T14:02:59.986Z,11.56
2018-09-08T14:05:28.164Z,11.55
2018-09-08T14:07:58.519Z,10.97
2018-09-08T14:10:26.883Z,10.14
2018-09-08T14:12:55.705Z,11.00
2018-09-08T14:15:23.869Z,13.87
2018-09-08T14:17:52.045Z,11.88
2018-09-08T14:20:20.202Z,11.46
2018-09-08T14:22:49.740Z,11.74
2018-09-08T14:25:18.022Z,10.77
2018-09-08T14:27:46.215Z,12.83
2018-09-08T14:30:14.386Z,12.43
2018-09-08T14:32:42.456Z,16.76
2018-09-08T14:35:10.560Z,19.35
2018-09-08T14:37:38.679Z,18.81
2018-09-08T14:40:06.789Z,18.17
2018-09-08T14:42:34.863Z,19.35
2018-09-08T14:45:03.498Z,19.32
2018-09-08T14:47:31.620Z,19.24
2018-09-08T14:49:59.778Z,17.45
2018-09-08T14:52:27.821Z,16.32
2018-09-08T14:54:55.965Z,15.64
2018-09-08T14:57:24.404Z,16.17
2018-09-08T14:59:52.810Z,16.22
2018-09-08T15:02:20.902Z,18.08
2018-09-08T15:04:49.349Z,18.82
2018-09-08T15:07:17.169Z,19.77
2018-09-08T15:09:45.280Z,19.85
2018-09-08T15:12:13.437Z,15.48
2018-09-08T15:14:41.551Z,13.46
2018-09-08T15:17:09.784Z,15.67
2018-09-08T15:19:37.855Z,20.23
2018-09-08T15:22:05.951Z,22.30
2018-09-08T15:24:34.067Z,19.05
2018-09-08T15:27:02.070Z,15.28
2018-09-08T15:29:30.246Z,16.36
2018-09-08T15:31:58.449Z,16.24
2018-09-08T15:34:26.535Z,17.51
2018-09-08T15:36:54.599Z,18.09
2018-09-08T15:39:22.683Z,19.94
2018-09-08T15:41:51.773Z,18.75
2018-09-08T15:44:19.997Z,16.71
2018-09-08T15:46:48.096Z,15.32
2018-09-08T15:49:16.181Z,15.63
2018-09-08T15:51:44.426Z,15.23
2018-09-08T15:54:12.660Z,13.69
2018-09-08T15:56:41.119Z,15.60
2018-09-08T15:59:09.195Z,14.04
2018-09-08T16:01:37.238Z,14.88
2018-09-08T16:04:05.372Z,16.09
2018-09-08T16:06:33.457Z,16.77
2018-09-08T16:09:01.514Z,15.29
2018-09-08T16:11:29.654Z,16.12
2018-09-08T16:13:57.799Z,15.51
2018-09-08T16:16:26.305Z,18.31
2018-09-08T16:18:54.391Z,18.37
2018-09-08T16:21:22.478Z,17.01
2018-09-08T16:23:50.500Z,19.62
2018-09-08T16:26:18.566Z,18.63
2018-09-08T16:28:46.698Z,20.95
2018-09-08T16:31:14.809Z,23.28
2018-09-08T16:33:42.869Z,25.64
2018-09-08T16:36:10.954Z,25.41
2018-09-08T16:38:39.067Z,26.25
2018-09-08T16:41:07.222Z,25.88
2018-09-08T16:43:35.294Z,26.01
2018-09-08T16:46:03.514Z,26.84
2018-09-08T16:48:31.565Z,28.24
2018-09-08T16:50:59.643Z,27.19
2018-09-08T16:53:27.676Z,27.97
2018-09-08T16:55:56.441Z,27.80
2018-09-08T16:58:24.510Z,27.65
2018-09-08T17:00:52.657Z,28.08
2018-09-08T17:03:20.682Z,29.05
2018-09-08T17:05:48.728Z,30.42
2018-09-08T17:08:22.329Z,29.83
2018-09-08T17:13:31.824Z,29.67
2018-09-08T17:15:59.979Z,30.31
2018-09-08T17:18:28.035Z,29.96
2018-09-08T17:20:56.467Z,29.84
2018-09-08T17:23:24.659Z,29.38
2018-09-08T17:25:52.784Z,29.55
2018-09-08T17:28:20.940Z,30.20
2018-09-08T17:30:49.984Z,30.75
2018-09-08T17:33:18.086Z,31.07
2018-09-08T17:35:46.400Z,32.08
2018-09-08T17:38:14.488Z,32.08
2018-09-08T17:40:42.578Z,31.57
2018-09-08T17:43:10.681Z,32.49
2018-09-08T17:45:38.994Z,31.68
2018-09-08T17:48:07.476Z,32.07
2018-09-08T17:50:35.566Z,32.07
2018-09-08T17:53:03.759Z,32.84
2018-09-08T17:55:31.887Z,32.76
2018-09-08T17:57:59.959Z,32.41
2018-09-08T18:00:28.023Z,32.55
2018-09-08T18:02:56.671Z,32.28
2018-09-08T18:05:24.923Z,32.93
2018-09-08T18:07:53.057Z,33.07
2018-09-08T18:10:21.235Z,34.02
2018-09-08T18:12:49.667Z,34.05
2018-09-08T18:15:17.769Z,33.92
2018-09-08T18:17:45.882Z,34.91
2018-09-08T18:20:13.994Z,34.71
2018-09-08T18:22:42.066Z,34.87
2018-09-08T18:25:10.168Z,35.72
2018-09-08T18:27:38.291Z,35.31
2018-09-08T18:30:06.696Z,35.95
2018-09-08T18:32:34.786Z,35.71
2018-09-08T18:35:02.922Z,36.02
2018-09-08T18:37:31.030Z,36.17
2018-09-08T18:39:59.130Z,36.51
2018-09-08T18:42:39.471Z,37.06
2018-09-08T18:45:07.531Z,37.04
2018-09-08T18:47:35.904Z,37.74
2018-09-08T18:50:04.100Z,37.98
2018-09-08T18:52:38.724Z,38.19
2018-09-08T18:55:06.982Z,38.10
2018-09-08T18:57:35.158Z,38.51
2018-09-08T19:00:04.400Z,38.51
2018-09-08T19:02:32.475Z,38.50
2018-09-08T19:07:42.402Z,38.94
2018-09-08T19:10:10.643Z,39.02
2018-09-08T19:12:57.113Z,39.63
2018-09-08T19:15:25.352Z,40.17
2018-09-08T19:17:53.771Z,40.08
2018-09-08T19:20:27.317Z,39.63
2018-09-08T19:22:55.383Z,40.74
2018-09-08T19:25:23.517Z,41.31
2018-09-08T19:27:51.638Z,41.38
2018-09-08T19:30:20.147Z,41.69
2018-09-08T19:32:48.231Z,41.69
2018-09-08T19:35:47.960Z,41.03
2018-09-08T19:38:16.097Z,42.15
2018-09-08T19:40:46.107Z,41.95
2018-09-08T19:43:14.306Z,42.21
2018-09-08T19:45:42.460Z,42.68
2018-09-08T19:48:12.881Z,42.00
2018-09-08T19:50:41.039Z,42.37
2018-09-08T19:53:14.867Z,42.10
2018-09-08T19:55:43.206Z,43.07
2018-09-08T19:58:19.836Z,43.30
2018-09-08T20:00:50.174Z,43.43
2018-09-08T20:03:18.357Z,43.18
2018-09-08T20:05:46.692Z,43.53
2018-09-08T20:08:15.199Z,43.52
2018-09-08T20:10:43.372Z,44.07
2018-09-08T20:13:11.497Z,44.25
2018-09-08T20:15:39.632Z,44.19
2018-09-08T20:18:07.809Z,45.45
2018-09-08T20:20:42.227Z,45.11
2018-09-08T20:23:11.260Z,45.02
2018-09-08T20:25:39.473Z,44.57
2018-09-08T20:28:07.586Z,45.87
2018-09-08T20:30:35.779Z,46.50
2018-09-08T20:33:03.851Z,45.83
2018-09-08T20:35:31.951Z,46.42
2018-09-08T20:38:00.028Z,46.31
2018-09-08T20:40:28.152Z,45.63
2018-09-08T20:42:56.258Z,46.56
2018-09-08T20:45:24.375Z,47.28
2018-09-08T20:47:52.553Z,47.21
2018-09-08T20:50:21.345Z,47.71
2018-09-08T20:52:49.365Z,47.71
2018-09-08T20:55:17.451Z,47.53
2018-09-08T20:57:45.536Z,47.79
2018-09-08T21:00:13.672Z,47.59
2018-09-08T21:02:41.759Z,47.93
2018-09-08T21:05:09.872Z,48.53
2018-09-08T21:07:38.354Z,48.27
2018-09-08T21:10:06.468Z,48.17
2018-09-08T21:12:34.649Z,48.52
2018-09-08T21:15:02.816Z,48.63
2018-09-08T21:17:30.868Z,49.07
2018-09-08T21:19:58.926Z,48.93
2018-09-08T21:22:27.593Z,48.78
2018-09-08T21:24:55.691Z,49.58
2018-09-08T21:27:24.043Z,48.94
2018-09-08T21:29:52.089Z,49.09
2018-09-08T21:32:20.335Z,49.21
2018-09-08T21:34:48.397Z,49.61
2018-09-08T21:37:16.645Z,49.38
2018-09-08T21:39:44.670Z,49.03
2018-09-08T21:42:12.802Z,50.35
2018-09-08T21:44:40.921Z,49.97
2018-09-08T21:47:08.979Z,49.74
2018-09-08T21:49:37.040Z,49.90
2018-09-08T21:52:05.167Z,50.26
2018-09-08T21:54:34.171Z,50.29
2018-09-08T21:57:02.200Z,50.92
2018-09-08T21:59:30.269Z,51.06
2018-09-08T22:01:59.850Z,50.24
2018-09-08T22:04:28.042Z,50.80
2018-09-08T22:06:56.288Z,51.03
2018-09-08T22:09:24.375Z,51.29
2018-09-08T22:11:52.560Z,51.24
2018-09-08T22:14:20.827Z,50.82
2018-09-08T22:16:48.959Z,51.02
2018-09-08T22:22:28.932Z,51.67
2018-09-08T22:24:57.901Z,51.47
2018-09-08T22:27:26.806Z,51.01
2018-09-08T22:29:54.894Z,51.58
2018-09-08T22:32:23.172Z,51.78
2018-09-08T22:34:51.346Z,51.78
2018-09-08T22:37:20.060Z,52.31
2018-09-08T22:39:48.326Z,51.76
2018-09-08T22:42:16.455Z,52.11
2018-09-08T22:44:46.296Z,52.61
2018-09-08T22:47:14.989Z,52.01
2018-09-08T22:49:43.133Z,52.34
2018-09-08T22:52:11.259Z,52.81
2018-09-08T22:54:39.349Z,52.00
2018-09-08T22:57:07.454Z,53.09
2018-09-08T22:59:36.846Z,53.03
2018-09-08T23:02:04.856Z,53.50
2018-09-08T23:04:32.971Z,53.59
2018-09-08T23:07:01.081Z,54.56
2018-09-08T23:09:29.178Z,53.62
2018-09-08T23:11:58.079Z,54.07
2018-09-08T23:14:26.192Z,53.96
2018-09-08T23:16:55.052Z,54.98
2018-09-08T23:19:23.219Z,54.01
2018-09-08T23:21:51.499Z,54.00
2018-09-08T23:24:19.786Z,53.03
2018-09-08T23:26:47.867Z,53.47
2018-09-08T23:29:16.015Z,53.89
2018-09-08T23:31:44.066Z,54.30
2018-09-08T23:34:12.274Z,54.40
2018-09-08T23:36:40.439Z,54.05
2018-09-08T23:39:08.532Z,54.28
2018-09-08T23:41:36.662Z,54.38
2018-09-08T23:44:04.898Z,54.21
2018-09-08T23:46:33.137Z,54.83
2018-09-08T23:49:01.284Z,54.69
2018-09-08T23:51:29.424Z,54.90
2018-09-08T23:53:58.224Z,55.57
2018-09-08T23:56:26.280Z,56.18
2018-09-08T23:58:54.563Z,56.53
